Time;durP1;ratioP1;P1;durP2;ratioP2;P2;SDS_P1;SDS_P2;PMS_P1;PMS_P2;Temp;Humidity;BMP_temperature;BMP_pressure;BME280_temperature;BME280_humidity;BME280_pressure;Samples;Min_cycle;Max_cycle;Signal;HPM_P1;HPM_P2
2021/06/17 00:01:35;;;;;;;5.68;2.97;;;21.10;99.90;;;;;;20807554;28;20507;-49
2021/06/17 00:11:37;;;;;;;3.78;2.45;;;21.00;99.90;;;;;;20817680;28;20501;-48
2021/06/17 00:21:38;;;;;;;5.15;3.08;;;21.00;99.90;;;;;;20810323;28;20397;-48
2021/06/17 00:31:39;;;;;;;5.47;3.35;;;20.90;99.90;;;;;;20805247;28;20041;-48
2021/06/17 00:41:42;;;;;;;5.32;3.28;;;20.80;99.90;;;;;;20806856;28;20529;-48
2021/06/17 00:51:43;;;;;;;5.43;3.30;;;20.70;99.90;;;;;;20810436;28;20064;-49
2021/06/17 01:01:44;;;;;;;6.72;3.78;;;20.70;99.90;;;;;;20807259;28;20479;-49
2021/06/17 01:11:53;;;;;;;7.90;3.55;;;20.60;99.90;;;;;;20798599;28;20547;-49
2021/06/17 01:22:08;;;;;;;6.63;4.15;;;20.50;99.90;;;;;;20823046;28;20485;-49
2021/06/17 01:32:10;;;;;;;6.82;3.55;;;20.50;99.90;;;;;;20824134;28;20472;-48
2021/06/17 01:42:13;;;;;;;8.15;4.10;;;20.50;99.90;;;;;;20799896;28;20083;-48
2021/06/17 01:52:16;;;;;;;7.38;3.45;;;20.50;99.90;;;;;;20841483;28;20042;-49
2021/06/17 02:02:19;;;;;;;6.43;3.85;;;20.40;99.90;;;;;;20811547;28;20420;-49
2021/06/17 02:12:20;;;;;;;10.68;4.43;;;20.40;99.90;;;;;;20844096;28;20518;-48
2021/06/17 02:22:26;;;;;;;9.45;4.88;;;20.40;99.90;;;;;;20805269;28;20037;-48
2021/06/17 02:32:29;;;;;;;7.65;4.10;;;20.50;99.90;;;;;;20807294;28;20479;-48
2021/06/17 02:42:33;;;;;;;8.68;5.13;;;20.50;99.90;;;;;;20818941;28;20504;-49
2021/06/17 02:52:39;;;;;;;8.85;5.22;;;20.60;99.90;;;;;;20820031;28;20393;-49
2021/06/17 03:02:54;;;;;;;7.40;4.63;;;20.60;99.90;;;;;;20816798;28;20050;-48
2021/06/17 03:13:00;;;;;;;8.30;4.22;;;20.60;99.90;;;;;;20820862;28;20219;-48
2021/06/17 03:23:05;;;;;;;8.95;4.47;;;20.50;99.90;;;;;;20816307;28;20149;-48
2021/06/17 03:33:06;;;;;;;11.10;4.95;;;20.30;99.90;;;;;;20813474;28;20037;-49
2021/06/17 03:43:09;;;;;;;6.20;3.75;;;20.10;99.90;;;;;;20801692;28;20053;-49
2021/06/17 03:53:13;;;;;;;10.15;5.07;;;20.00;99.90;;;;;;20826315;28;20489;-48
2021/06/17 04:03:15;;;;;;;7.20;4.30;;;20.10;99.90;;;;;;20812945;28;20068;-48
2021/06/17 04:13:17;;;;;;;6.40;4.43;;;20.30;99.90;;;;;;20743265;28;20532;-48
2021/06/17 04:23:21;;;;;;;7.90;3.42;;;20.60;99.90;;;;;;20730214;28;20393;-48
2021/06/17 04:33:25;;;;;;;8.23;3.92;;;20.80;99.90;;;;;;20725775;28;20486;-48
2021/06/17 04:43:30;;;;;;;4.90;3.13;;;21.10;99.90;;;;;;20761770;28;20456;-48
2021/06/17 04:53:34;;;;;;;7.88;4.32;;;21.60;99.90;;;;;;20807189;28;20580;-48
2021/06/17 05:03:37;;;;;;;8.93;4.72;;;22.10;99.90;;;;;;20837121;28;20045;-48
2021/06/17 05:13:42;;;;;;;9.73;5.22;;;22.50;99.90;;;;;;20851638;28;20457;-48
2021/06/17 05:23:44;;;;;;;9.35;5.53;;;22.90;99.90;;;;;;20830901;28;20492;-48
2021/06/17 05:33:45;;;;;;;7.63;4.25;;;23.20;99.90;;;;;;20819579;28;20555;-48
2021/06/17 05:43:46;;;;;;;12.23;5.35;;;23.50;99.90;;;;;;20815430;28;20609;-49
2021/06/17 05:53:48;;;;;;;8.23;4.90;;;23.70;99.90;;;;;;20821541;28;20542;-49
2021/06/17 06:03:49;;;;;;;8.00;3.72;;;24.10;99.90;;;;;;20823138;28;20577;-48
2021/06/17 06:13:50;;;;;;;9.82;4.20;;;24.30;99.90;;;;;;20810061;28;20052;-48
2021/06/17 06:23:51;;;;;;;69.00;35.42;;;24.80;99.90;;;;;;20819969;28;20258;-49
2021/06/17 06:33:52;;;;;;;9.02;4.35;;;25.20;99.90;;;;;;20828253;28;20419;-49
2021/06/17 06:43:53;;;;;;;6.47;3.80;;;25.20;99.90;;;;;;20835369;28;20063;-49
2021/06/17 06:53:54;;;;;;;8.15;3.50;;;25.20;99.90;;;;;;20827402;28;20045;-49
2021/06/17 07:03:56;;;;;;;5.00;2.83;;;25.40;99.90;;;;;;20844437;28;20053;-49
2021/06/17 07:13:57;;;;;;;7.30;4.00;;;25.50;99.90;;;;;;20823284;28;20943;-48
2021/06/17 07:23:59;;;;;;;5.13;2.95;;;25.70;99.90;;;;;;20818278;28;20131;-48
2021/06/17 07:34:01;;;;;;;6.50;3.10;;;25.70;99.90;;;;;;20827606;28;20041;-48
2021/06/17 07:44:04;;;;;;;3.95;2.38;;;25.80;99.90;;;;;;20759953;28;20055;-48
2021/06/17 07:54:05;;;;;;;3.38;1.90;;;26.10;99.90;;;;;;20747116;28;20976;-48
2021/06/17 08:04:07;;;;;;;3.20;1.58;;;26.20;99.90;;;;;;20754775;28;20045;-48
2021/06/17 08:14:08;;;;;;;2.33;1.52;;;26.40;99.90;;;;;;20740330;28;20056;-47
2021/06/17 08:24:10;;;;;;;2.72;1.83;;;26.60;99.90;;;;;;20751458;28;20120;-48
2021/06/17 08:34:11;;;;;;;3.95;1.20;;;26.70;99.90;;;;;;20751089;28;20049;-48
2021/06/17 08:44:12;;;;;;;5.60;1.50;;;26.80;99.90;;;;;;20748268;28;20137;-48
2021/06/17 08:54:24;;;;;;;6.75;1.92;;;26.90;99.90;;;;;;20758415;28;20045;-48
2021/06/17 09:04:27;;;;;;;1.70;1.00;;;26.90;99.90;;;;;;20740397;28;20038;-48
2021/06/17 09:14:28;;;;;;;3.92;1.55;;;27.00;99.90;;;;;;20737732;28;20053;-48
2021/06/17 09:24:34;;;;;;;2.20;1.20;;;26.90;99.90;;;;;;20733711;28;20100;-48
2021/06/17 09:34:35;;;;;;;5.77;1.50;;;27.30;99.90;;;;;;20727088;28;20049;-50
2021/06/17 09:44:42;;;;;;;3.10;1.30;;;27.40;99.90;;;;;;20736555;28;20082;-50
2021/06/17 09:54:43;;;;;;;4.37;1.50;;;27.60;99.90;;;;;;20807672;28;20041;-48
2021/06/17 10:04:45;;;;;;;2.35;1.30;;;27.40;99.90;;;;;;20822218;28;20050;-48
2021/06/17 10:14:47;;;;;;;1.98;1.17;;;27.50;99.90;;;;;;20836330;28;20057;-48
2021/06/17 10:24:49;;;;;;;2.33;1.10;;;27.80;99.90;;;;;;20844719;28;20041;-48
2021/06/17 10:34:54;;;;;;;4.35;1.63;;;28.50;99.90;;;;;;20845330;28;20041;-48
2021/06/17 10:44:58;;;;;;;2.05;1.45;;;29.10;99.90;;;;;;20808742;28;20061;-48
2021/06/17 10:55:08;;;;;;;2.47;1.33;;;29.50;99.90;;;;;;20847848;28;20041;-48
2021/06/17 11:05:30;;;;;;;6.35;3.90;;;30.60;99.90;;;;;;20743159;28;20038;-48
2021/06/17 11:15:36;;;;;;;3.45;1.35;;;30.40;99.90;;;;;;20744624;28;20056;-48
2021/06/17 11:25:38;;;;;;;4.18;1.60;;;30.60;99.90;;;;;;20740250;28;20130;-48
2021/06/17 11:35:40;;;;;;;9.52;2.08;;;31.40;98.60;;;;;;20754264;28;20049;-48
2021/06/17 11:45:41;;;;;;;11.35;2.42;;;31.10;98.70;;;;;;20758152;28;20046;-48
2021/06/17 11:55:47;;;;;;;2.10;1.52;;;30.60;99.50;;;;;;20769754;28;20056;-48
2021/06/17 12:05:49;;;;;;;2.15;1.10;;;30.80;99.80;;;;;;20826375;28;20128;-48
2021/06/17 12:15:57;;;;;;;4.13;1.15;;;31.10;99.40;;;;;;20815775;28;20045;-48
2021/06/17 12:26:00;;;;;;;2.35;1.23;;;31.50;96.80;;;;;;20833476;28;20045;-48
2021/06/17 12:36:13;;;;;;;2.45;0.95;;;31.60;96.30;;;;;;20797666;28;21138;-48
2021/06/17 12:46:17;;;;;;;3.08;1.23;;;32.00;97.00;;;;;;20838964;28;20045;-48
2021/06/17 12:56:18;;;;;;;1.92;1.05;;;31.50;97.70;;;;;;20813205;28;20056;-48
2021/06/17 13:06:37;;;;;;;5.30;1.25;;;31.60;96.20;;;;;;20826885;28;20046;-48
2021/06/17 13:16:38;;;;;;;5.20;1.17;;;31.50;97.60;;;;;;20823857;28;20053;-48
2021/06/17 13:26:39;;;;;;;1.95;1.15;;;31.30;98.10;;;;;;20846476;28;20048;-48
2021/06/17 13:36:40;;;;;;;2.33;1.40;;;31.30;98.40;;;;;;20842964;28;20030;-49
2021/06/17 13:46:42;;;;;;;2.05;1.42;;;31.30;98.40;;;;;;20834180;28;20053;-48
2021/06/17 13:56:43;;;;;;;2.67;1.38;;;31.20;97.90;;;;;;20809640;28;20096;-48
2021/06/17 14:06:45;;;;;;;2.22;1.17;;;30.60;98.70;;;;;;20826344;28;20033;-48
2021/06/17 14:16:46;;;;;;;3.60;1.30;;;30.40;98.00;;;;;;20818094;28;20079;-48
2021/06/17 14:26:48;;;;;;;1.85;1.05;;;30.00;99.90;;;;;;20825062;28;20057;-48
2021/06/17 14:36:49;;;;;;;1.90;1.05;;;30.10;99.90;;;;;;20818515;28;20099;-48
2021/06/17 14:46:50;;;;;;;2.40;1.23;;;29.60;99.90;;;;;;20819822;28;20808;-48
2021/06/17 14:56:53;;;;;;;6.60;2.10;;;29.10;99.90;;;;;;20753045;28;20040;-48
2021/06/17 15:06:55;;;;;;;4.53;2.03;;;28.70;99.90;;;;;;20746787;28;20041;-50
2021/06/17 15:16:56;;;;;;;2.70;1.52;;;29.00;99.90;;;;;;20747730;28;20049;-48
2021/06/17 15:26:57;;;;;;;4.82;2.72;;;28.70;99.90;;;;;;20752441;28;20049;-48
2021/06/17 15:36:58;;;;;;;3.22;1.20;;;29.10;99.90;;;;;;20741200;28;20045;-48
2021/06/17 15:46:59;;;;;;;3.65;1.23;;;29.10;99.90;;;;;;20738580;28;20054;-48
2021/06/17 15:57:01;;;;;;;6.22;1.92;;;28.80;99.90;;;;;;20737806;28;20140;-48
2021/06/17 16:07:02;;;;;;;3.97;1.67;;;28.80;99.90;;;;;;20735346;28;20034;-48
2021/06/17 16:17:03;;;;;;;3.63;1.50;;;28.80;99.90;;;;;;20790337;28;20041;-48
2021/06/17 16:27:06;;;;;;;3.35;2.03;;;28.70;99.90;;;;;;20729793;28;20133;-47
2021/06/17 16:37:07;;;;;;;3.13;1.60;;;28.40;99.90;;;;;;20805708;28;20137;-49
2021/06/17 16:47:09;;;;;;;3.33;1.65;;;28.30;99.90;;;;;;20806605;28;20056;-47
2021/06/17 16:57:12;;;;;;;3.88;2.13;;;27.90;99.90;;;;;;20817614;28;20045;-47
2021/06/17 17:07:14;;;;;;;2.83;1.55;;;27.50;99.90;;;;;;20813784;28;20048;-48
2021/06/17 17:17:15;;;;;;;5.57;2.33;;;27.40;99.90;;;;;;20819336;28;20118;-48
2021/06/17 17:27:17;;;;;;;4.72;2.42;;;27.10;99.90;;;;;;20818897;28;20041;-50
2021/06/17 17:37:18;;;;;;;3.55;1.85;;;27.10;99.90;;;;;;20819738;28;20034;-48
2021/06/17 17:47:19;;;;;;;3.08;1.80;;;26.70;99.90;;;;;;20815870;28;20132;-48
2021/06/17 17:57:21;;;;;;;5.43;3.03;;;26.40;99.90;;;;;;20789465;28;20044;-49
2021/06/17 18:07:22;;;;;;;3.55;2.30;;;26.10;99.90;;;;;;20814265;28;20042;-48
2021/06/17 18:17:25;;;;;;;3.17;1.60;;;25.80;99.90;;;;;;20828828;28;20094;-48
2021/06/17 18:27:31;;;;;;;2.42;1.63;;;25.80;99.90;;;;;;20816770;28;20049;-48
2021/06/17 18:37:33;;;;;;;4.00;1.50;;;25.60;99.90;;;;;;20814872;28;20317;-48
2021/06/17 18:47:35;;;;;;;3.10;1.33;;;25.50;99.90;;;;;;20827317;28;20095;-48
2021/06/17 18:57:36;;;;;;;6.18;1.92;;;25.50;99.90;;;;;;20820008;28;20046;-47
2021/06/17 19:07:37;;;;;;;1.73;1.00;;;25.20;99.90;;;;;;20805092;28;20037;-48
2021/06/17 19:17:39;;;;;;;2.90;1.70;;;24.90;99.90;;;;;;20808660;28;20072;-47
2021/06/17 19:27:42;;;;;;;2.80;1.63;;;24.90;99.90;;;;;;20814854;28;20041;-47
2021/06/17 19:37:43;;;;;;;3.38;1.75;;;24.70;99.90;;;;;;20810485;28;20045;-47
2021/06/17 19:47:44;;;;;;;3.38;2.00;;;24.40;99.90;;;;;;20807680;28;20362;-47
2021/06/17 19:57:45;;;;;;;3.03;1.92;;;24.20;99.90;;;;;;20808280;28;20080;-47
2021/06/17 20:07:49;;;;;;;5.50;2.47;;;24.00;99.90;;;;;;20808791;28;20037;-48
2021/06/17 20:17:51;;;;;;;4.70;2.58;;;23.90;99.90;;;;;;20810315;28;20298;-47
2021/06/17 20:27:52;;;;;;;5.07;2.53;;;23.90;99.90;;;;;;20788854;28;20108;-48
2021/06/17 20:37:53;;;;;;;9.57;3.90;;;23.70;99.90;;;;;;20792804;28;20432;-47
2021/06/17 20:47:55;;;;;;;7.50;3.53;;;23.60;99.90;;;;;;20801426;28;20077;-47
2021/06/17 20:57:56;;;;;;;6.22;3.33;;;23.60;99.90;;;;;;20804247;28;20405;-47
2021/06/17 21:07:57;;;;;;;7.53;3.63;;;23.40;99.90;;;;;;20806251;28;20044;-47
2021/06/17 21:18:06;;;;;;;7.43;4.25;;;23.20;99.90;;;;;;20802303;28;20041;-47
2021/06/17 21:28:08;;;;;;;6.72;3.38;;;22.90;99.90;;;;;;20808732;28;20052;-47
2021/06/17 21:38:09;;;;;;;6.03;3.10;;;22.60;99.90;;;;;;20808578;28;20179;-49
2021/06/17 21:48:11;;;;;;;6.60;3.05;;;22.50;99.90;;;;;;20802589;28;20056;-47
2021/06/17 21:58:12;;;;;;;7.15;2.80;;;22.40;99.90;;;;;;20811392;28;20057;-47
2021/06/17 22:08:13;;;;;;;4.25;2.35;;;22.30;99.90;;;;;;20806300;28;20049;-47
2021/06/17 22:18:14;;;;;;;4.95;2.83;;;22.10;99.90;;;;;;20815167;28;20041;-47
2021/06/17 22:28:16;;;;;;;5.78;2.90;;;21.90;99.90;;;;;;20816656;28;20158;-48
2021/06/17 22:38:17;;;;;;;7.93;2.85;;;21.80;99.90;;;;;;20812153;28;20059;-47
2021/06/17 22:48:18;;;;;;;7.00;3.05;;;21.90;99.90;;;;;;20813257;28;20045;-48
2021/06/17 22:58:19;;;;;;;10.52;3.63;;;21.80;99.90;;;;;;20814016;28;20044;-47
2021/06/17 23:08:20;;;;;;;8.75;3.47;;;21.80;99.90;;;;;;20810729;28;20056;-47
2021/06/17 23:18:22;;;;;;;10.77;4.30;;;21.70;99.90;;;;;;20809486;28;20037;-47
2021/06/17 23:28:23;;;;;;;8.38;3.85;;;21.70;99.90;;;;;;20806995;28;20111;-47
2021/06/17 23:38:25;;;;;;;9.05;3.85;;;21.60;99.90;;;;;;20807110;28;20122;-47
2021/06/17 23:48:26;;;;;;;7.80;4.10;;;21.40;99.90;;;;;;20809850;28;20057;-47
2021/06/17 23:58:27;;;;;;;6.18;3.75;;;21.50;99.90;;;;;;20810814;28;20572;-48
